Etusivu
METAR-TAF:

METAR-TAF

Lentoasemat :

Río Grande, Argentiina

Leveyspiiri: 53-48S, Pituuspiiri: 067-45W, korkeus merenpinnasta: 13 m

Tämänhetkinen sää

Tämä raportti tehtiin 1 tunti ja 7 minuuttia sitten, kello 04.00 UTC
Tuuli 10 kn koillisesta
Lämpötila 9°C
Kosteus 87%
Ilmanpaine 1006 hPa
Näkyvyys 10 km tai enemmän
Hajonneita pilviä 1800 ft:n korkeudessa

METAR: SAWE 190400Z 05010KT 9999 BKN018 09/07 Q1006

Aika: 02:07 (05:07 UTC)

Sääennuste

Tämä raportti tehtiin 6 tuntia ja 7 minuuttia sitten, kello 23.00 UTC
Ennuste voimassa 19. päivästä klo 00 UTC - 19. päivään klo 24 UTC
Tuuli 5 kn eri suunnista
Näkyvyys 10 km tai enemmän
Hajonneita pilviä 1500 ft:n korkeudessa
Tulossa
19. päivästä klo 10 UTC - 19. päivään klo 12 UTC
Tuuli 10 kn lännestä/luoteesta
Hajanaisia pilviä 2000 ft:n korkeudessa

TAF: SAWE 182300Z 1900/1924 VRB05KT 9999 BKN015 TX16/1918Z TN05/1910Z BECMG 1910/1912 30010KT SCT020

Säähavainnot ja -ennusteet yli 4000 lentoasemalta (METAR- ja TAF-raportit).

Käytössä olevat sääasemat on merkitty karttaan keltaisilla ja punaisilla pisteillä.

Aseta hiiri pisteen päälle nähdäksesi sääaseman nimen.

Klikkaa sitten nähdäksesi säähavainnot ja -ennusteet.

Kartan vaihtaminen: klikkaa mustalla rastilla varustettuja vihreitä pisteitä, niin voit zoomata sisään; viivalla varustettua vihreää pistettä, niin voit zoomata ulos tai vihreitä nuolia, niin pääset viereisille kartoille.


METAR-TAF: